• Join FlightAware (Why Join?)
  • Login
  • US Flag 
09:25AM EDT


 

Airport Tracker/Info


-or-


 

Live Flight TrackerFlight Track Log ✈ DAL3720 ✈ 26-Sep-2013 ✈ KFAR - KMSP

Flight Track Log - Related Links

Times and Time Zones

All times are in EDT time to prevent confusion due to time zone crossing. See the DAL3720 flight status page for this flight to view local times or setup timezone preferences in your user account.

Time Position Orientation Groundspeed Altitude Reporting Facility
EDT Latitude Longitude Course Direction KTS MPH feet Rate Location/Type
08:08AM 46.8978 -96.8142 123° Southeast 130 150 2,800  Level Minneapolis Center
08:09AM 46.8697 -96.7503 123° Southeast 177 204 4,800 1,860 Climbing Minneapolis Center
08:10AM 46.8356 -96.6667 121° Southeast 243 280 6,600 2,040 Climbing Minneapolis Center
08:11AM 46.7989 -96.5617 117° Southeast 275 316 9,100 2,460 Climbing Minneapolis Center
08:12AM 46.7603 -96.4519 117° Southeast 289 333 11,700 2,340 Climbing Minneapolis Center
08:13AM 46.7206 -96.3386 117° Southeast 298 343 13,900 1,920 Climbing Minneapolis Center
08:14AM 46.6822 -96.2286 117° Southeast 313 360 15,700 1,620 Climbing Minneapolis Center
08:15AM 46.6386 -96.1050 117° Southeast 327 376 17,300 1,320 Climbing Minneapolis Center
08:16AM 46.5908 -95.9694 117° Southeast 357 411 18,500 780 Climbing Minneapolis Center
08:17AM 46.5519 -95.8572 117° Southeast 372 428 19,000 240 Climbing Minneapolis Center
08:18AM 46.4900 -95.6844 117° Southeast 399 459 19,000  Level Minneapolis Center
08:19AM 46.4439 -95.5547 117° Southeast 403 464 19,000  Level Minneapolis Center
08:20AM 46.3861 -95.3967 118° Southeast 400 460 19,000  Level Minneapolis Center
08:21AM 46.3358 -95.2556 117° Southeast 398 458 19,000  Level Minneapolis Center
08:22AM 46.2847 -95.1153 118° Southeast 396 456 19,000  Level Minneapolis Center
08:23AM 46.2331 -94.9758 118° Southeast 395 455 19,000  Level Minneapolis Center
08:24AM 46.1786 -94.8403 120° Southeast 394 453 19,000  Level Minneapolis Center
08:25AM 46.1139 -94.7133 126° Southeast 393 452 19,000  Level Minneapolis Center
08:26AM 46.0394 -94.5644 126° Southeast 389 448 19,000  Level Minneapolis Center
08:27AM 45.9772 -94.4419 126° Southeast 385 443 19,000  Level Minneapolis Center
08:28AM 45.9136 -94.3183 126° Southeast 385 443 19,000  Level Minneapolis Center
08:29AM 45.8478 -94.1900 126° Southeast 391 450 19,000 -1,020 Level Minneapolis Center
08:30AM 45.7806 -94.0578 126° Southeast 402 463 17,000 -2,040 Descending Minneapolis Center
08:31AM 45.7142 -93.9283 126° Southeast 405 466 14,900 -2,220 Descending Minneapolis Center
08:33AM 45.6356 -93.7769 127° Southeast 393 452 12,500 -1,920 Descending Minneapolis Center
08:34AM 45.5744 -93.6569 126° Southeast 377 434 11,000 -780 Descending Minneapolis Center
08:35AM 45.5000 -93.5614 138° Southeast 368 423 11,000 -540 Level Minneapolis Center
08:36AM 45.4067 -93.5344 169° South 314 361 10,000 -1,260 Descending Minneapolis Center
08:37AM 45.3342 -93.5139 169° South 269 310 8,500 -1,500 Descending Minneapolis Center
08:38AM 45.2672 -93.4944 168° South 249 287 7,000 -780 Descending Minneapolis Center
08:39AM 45.1983 -93.4969 181° South 231 266 7,000 -600 Level Minneapolis Center
08:40AM 45.1428 -93.5217 197° South 215 247 5,800 -1,320 Descending Minneapolis Center
08:41AM 45.0900 -93.5528 203° Southwest 208 239 4,400 -900 Descending Minneapolis Center
08:42AM 45.0375 -93.5528 180° South 198 228 4,000 -240 Descending Minneapolis Center
08:43AM 45.0072 -93.4856 122° Southeast 202 232 4,000  Level Minneapolis Center
08:44AM 44.9839 -93.4322 122° Southeast 168 193 4,000 -360 Level Minneapolis Center
08:45AM 44.9586 -93.3728 121° Southeast 164 189 3,300 -780 Descending Minneapolis Center
08:46AM 44.9367 -93.3217 121° Southeast 156 180 2,500 -720 Descending Minneapolis Center
08:47AM 44.9192 -93.2819 122° Southeast 125 144 1,900 -660 Descending Minneapolis Center
08:48AM 44.9011 -93.2397 121° Southeast 117 135 1,200 -720 Descending Minneapolis Center
08:50AM 44.8820 -93.2218 160° South  Level Estimated